Time;durP1;ratioP1;P1;durP2;ratioP2;P2;SDS_P1;SDS_P2;PMS_P1;PMS_P2;Temp;Humidity;BMP_temperature;BMP_pressure;BME280_temperature;BME280_humidity;BME280_pressure;Samples;Min_cycle;Max_cycle;Signal;HPM_P1;HPM_P2
2024/01/01 00:01:19;;;;;;;14.37;10.27;;;;;;;;;;5057273;28;20518;-77
2024/01/01 00:03:46;;;;;;;17.63;12.63;;;;;;;;;;5053122;28;20547;-78
2024/01/01 00:06:12;;;;;;;14.17;10.20;;;;;;;;;;5062838;28;20507;-77
2024/01/01 00:08:40;;;;;;;12.10;9.00;;;;;;;;;;5073997;28;20520;-78
2024/01/01 00:11:07;;;;;;;15.00;12.07;;;;;;;;;;5076070;28;20467;-77
2024/01/01 00:13:33;;;;;;;12.10;8.90;;;;;;;;;;5068344;28;20448;-76
2024/01/01 00:15:59;;;;;;;17.00;10.47;;;;;;;;;;5076331;28;20543;-77
2024/01/01 00:18:26;;;;;;;13.77;7.70;;;;;;;;;;5077220;28;21124;-75
2024/01/01 00:20:52;;;;;;;13.30;10.93;;;;;;;;;;5077239;28;20538;-78
2024/01/01 00:23:19;;;;;;;9.70;8.17;;;;;;;;;;5077110;28;20483;-76
2024/01/01 00:25:46;;;;;;;12.67;8.50;;;;;;;;;;5076857;28;20460;-74
2024/01/01 00:28:13;;;;;;;11.00;7.10;;;;;;;;;;5077376;28;20539;-78
2024/01/01 00:30:39;;;;;;;22.70;16.00;;;;;;;;;;5076913;28;20544;-78
2024/01/01 00:33:05;;;;;;;20.73;15.50;;;;;;;;;;5076705;28;20428;-74
2024/01/01 00:35:32;;;;;;;11.30;7.90;;;;;;;;;;5076761;28;20471;-75
2024/01/01 00:38:00;;;;;;;12.63;7.27;;;;;;;;;;5075754;28;20547;-77
2024/01/01 00:40:27;;;;;;;11.27;7.57;;;;;;;;;;5072449;28;20463;-77
2024/01/01 00:42:54;;;;;;;12.43;7.57;;;;;;;;;;5076693;28;20479;-73
2024/01/01 00:45:21;;;;;;;11.50;7.43;;;;;;;;;;5075821;28;20953;-77
2024/01/01 00:47:47;;;;;;;34.70;24.30;;;;;;;;;;5072197;28;20455;-76
2024/01/01 00:50:14;;;;;;;33.80;26.37;;;;;;;;;;5076387;28;20519;-76
2024/01/01 00:52:40;;;;;;;13.27;9.63;;;;;;;;;;5077030;28;20477;-76
2024/01/01 00:55:07;;;;;;;28.70;19.10;;;;;;;;;;5075542;28;20570;-77
2024/01/01 00:57:33;;;;;;;11.60;7.30;;;;;;;;;;5072342;28;20479;-76
2024/01/01 01:00:01;;;;;;;13.40;9.27;;;;;;;;;;5072022;28;20540;-77
2024/01/01 01:02:27;;;;;;;13.53;7.47;;;;;;;;;;5074747;28;20594;-76
2024/01/01 01:04:54;;;;;;;10.70;7.30;;;;;;;;;;5075913;28;20554;-73
2024/01/01 01:07:20;;;;;;;8.97;7.80;;;;;;;;;;5058152;28;20516;-75
2024/01/01 01:09:47;;;;;;;7.83;6.70;;;;;;;;;;5056361;28;20468;-71
2024/01/01 01:12:16;;;;;;;12.83;7.17;;;;;;;;;;5051945;28;20469;-72
2024/01/01 01:14:42;;;;;;;10.40;6.80;;;;;;;;;;5051169;28;20452;-72
2024/01/01 01:17:10;;;;;;;13.30;8.13;;;;;;;;;;5052369;28;21038;-71
2024/01/01 01:19:36;;;;;;;10.70;7.13;;;;;;;;;;5055850;28;20492;-71
2024/01/01 01:22:03;;;;;;;10.30;7.33;;;;;;;;;;5056123;28;21021;-72
2024/01/01 01:24:29;;;;;;;8.47;6.80;;;;;;;;;;5051588;28;20515;-72
2024/01/01 01:26:56;;;;;;;11.30;6.20;;;;;;;;;;5056552;28;20472;-72
2024/01/01 01:29:22;;;;;;;8.77;6.07;;;;;;;;;;5056439;28;20540;-72
2024/01/01 01:31:49;;;;;;;10.30;6.30;;;;;;;;;;5055969;28;20445;-72
2024/01/01 01:34:18;;;;;;;9.67;7.00;;;;;;;;;;5055870;28;20475;-71
2024/01/01 01:36:54;;;;;;;10.50;6.50;;;;;;;;;;5146057;27;20821;-72
2024/01/01 01:39:21;;;;;;;9.70;6.27;;;;;;;;;;5140323;27;20477;-72
2024/01/01 01:41:47;;;;;;;9.00;6.57;;;;;;;;;;5142796;27;20953;-72
2024/01/01 01:44:14;;;;;;;7.07;6.40;;;;;;;;;;5134977;27;20477;-71
2024/01/01 01:46:41;;;;;;;8.33;6.97;;;;;;;;;;5144020;27;20486;-72
2024/01/01 01:49:07;;;;;;;11.83;6.83;;;;;;;;;;5121947;27;20466;-72
2024/01/01 01:51:34;;;;;;;11.07;6.07;;;;;;;;;;5144272;27;20629;-72
2024/01/01 01:54:02;;;;;;;10.80;6.47;;;;;;;;;;5137185;27;20448;-72
2024/01/01 01:56:29;;;;;;;8.83;6.47;;;;;;;;;;5141484;27;20511;-72
2024/01/01 01:58:55;;;;;;;11.77;6.60;;;;;;;;;;5136159;27;20557;-72
2024/01/01 02:01:21;;;;;;;11.00;7.20;;;;;;;;;;5146424;27;21059;-72
2024/01/01 02:03:48;;;;;;;8.80;6.80;;;;;;;;;;5142303;27;20450;-71
2024/01/01 02:06:14;;;;;;;10.03;6.20;;;;;;;;;;5143177;27;20473;-72
2024/01/01 02:08:41;;;;;;;11.33;7.20;;;;;;;;;;5140602;27;20463;-72
2024/01/01 02:11:08;;;;;;;12.23;5.43;;;;;;;;;;5127921;27;20447;-72
2024/01/01 02:13:35;;;;;;;9.30;6.30;;;;;;;;;;5133035;27;20551;-72
2024/01/01 02:16:01;;;;;;;10.43;7.07;;;;;;;;;;5129713;27;20492;-72
2024/01/01 02:18:29;;;;;;;7.97;6.87;;;;;;;;;;5125485;27;20450;-72
2024/01/01 02:20:56;;;;;;;7.43;6.60;;;;;;;;;;5133145;27;20493;-72
2024/01/01 02:23:24;;;;;;;9.83;7.40;;;;;;;;;;5131302;27;20456;-72
2024/01/01 02:25:51;;;;;;;8.73;7.83;;;;;;;;;;5139849;27;20445;-72
2024/01/01 02:28:19;;;;;;;7.70;6.37;;;;;;;;;;5136008;27;20525;-72
2024/01/01 02:30:45;;;;;;;10.43;7.10;;;;;;;;;;5123295;27;20462;-72
2024/01/01 02:33:14;;;;;;;10.00;6.90;;;;;;;;;;5113529;28;20488;-71
2024/01/01 02:35:40;;;;;;;11.30;6.97;;;;;;;;;;5115258;28;20525;-72
2024/01/01 02:38:07;;;;;;;7.67;6.87;;;;;;;;;;5119266;28;21054;-72
2024/01/01 02:40:35;;;;;;;11.93;8.43;;;;;;;;;;5121142;28;20465;-72
2024/01/01 02:43:02;;;;;;;12.33;7.90;;;;;;;;;;5112465;28;20534;-72
2024/01/01 02:45:29;;;;;;;9.17;7.80;;;;;;;;;;5116209;28;20573;-72
2024/01/01 02:47:55;;;;;;;10.30;7.70;;;;;;;;;;5108173;28;20472;-72
2024/01/01 02:50:22;;;;;;;9.83;7.43;;;;;;;;;;5102608;28;20489;-72
2024/01/01 02:52:48;;;;;;;8.60;6.97;;;;;;;;;;5099744;28;20537;-72
2024/01/01 02:55:15;;;;;;;14.67;8.23;;;;;;;;;;5098213;28;20470;-72
2024/01/01 02:57:42;;;;;;;8.50;7.00;;;;;;;;;;5098631;28;20931;-73
2024/01/01 03:00:09;;;;;;;9.87;7.67;;;;;;;;;;5097616;28;20517;-72
2024/01/01 03:02:38;;;;;;;17.20;8.20;;;;;;;;;;5096350;28;20797;-72
2024/01/01 03:05:04;;;;;;;9.93;7.30;;;;;;;;;;5107791;28;20986;-72
2024/01/01 03:07:32;;;;;;;16.37;7.93;;;;;;;;;;5100594;28;20461;-72
2024/01/01 03:09:58;;;;;;;9.40;6.30;;;;;;;;;;5091001;28;20448;-72
2024/01/01 03:12:23;;;;;;;7.23;6.53;;;;;;;;;;5093063;28;20516;-72
2024/01/01 03:14:51;;;;;;;13.57;6.83;;;;;;;;;;5097538;28;20463;-72
2024/01/01 03:17:18;;;;;;;9.50;6.37;;;;;;;;;;5099425;28;21909;-72
2024/01/01 03:19:44;;;;;;;9.13;7.10;;;;;;;;;;5101033;28;21079;-72
2024/01/01 03:22:10;;;;;;;9.87;7.00;;;;;;;;;;5093521;28;20510;-72
2024/01/01 03:24:37;;;;;;;8.17;6.53;;;;;;;;;;5098071;28;20529;-72
2024/01/01 03:27:03;;;;;;;8.03;6.57;;;;;;;;;;5100508;28;20907;-72
2024/01/01 03:29:29;;;;;;;9.30;6.17;;;;;;;;;;5110247;28;20962;-72
2024/01/01 03:31:57;;;;;;;7.43;6.63;;;;;;;;;;5114517;28;20502;-71
2024/01/01 03:34:23;;;;;;;10.63;6.77;;;;;;;;;;5103089;28;20542;-72
2024/01/01 03:36:50;;;;;;;9.40;6.90;;;;;;;;;;5101136;28;20496;-73
2024/01/01 03:39:17;;;;;;;13.93;7.40;;;;;;;;;;5101040;28;20453;-72
2024/01/01 03:41:43;;;;;;;6.23;5.73;;;;;;;;;;5110976;28;20525;-72
2024/01/01 03:44:10;;;;;;;6.47;5.80;;;;;;;;;;5102029;28;20537;-72
2024/01/01 03:46:37;;;;;;;8.80;6.00;;;;;;;;;;5097758;28;20443;-72
2024/01/01 03:49:04;;;;;;;10.40;6.10;;;;;;;;;;5099947;28;20511;-71
2024/01/01 03:51:31;;;;;;;8.33;5.87;;;;;;;;;;5101870;28;20475;-71
2024/01/01 03:53:58;;;;;;;10.37;5.63;;;;;;;;;;5102503;28;20463;-72
2024/01/01 03:56:25;;;;;;;12.67;5.20;;;;;;;;;;5105820;28;20562;-72
2024/01/01 03:58:51;;;;;;;7.30;5.50;;;;;;;;;;5098580;28;20996;-71
2024/01/01 04:01:20;;;;;;;7.13;5.10;;;;;;;;;;5101907;28;20498;-72
2024/01/01 04:03:46;;;;;;;11.07;5.90;;;;;;;;;;5102785;28;20530;-72
2024/01/01 04:06:14;;;;;;;11.37;6.37;;;;;;;;;;5097992;28;20515;-72
2024/01/01 04:08:40;;;;;;;10.23;6.60;;;;;;;;;;5096976;28;20493;-72
2024/01/01 04:11:07;;;;;;;8.57;5.00;;;;;;;;;;5101032;28;20521;-71
2024/01/01 04:13:33;;;;;;;8.30;4.60;;;;;;;;;;5093907;28;20451;-71
2024/01/01 04:16:00;;;;;;;10.27;4.87;;;;;;;;;;5101265;28;20545;-71
2024/01/01 04:18:26;;;;;;;9.80;4.73;;;;;;;;;;5097393;28;20463;-70
2024/01/01 04:20:53;;;;;;;7.47;4.10;;;;;;;;;;5101471;28;20458;-70
2024/01/01 04:23:20;;;;;;;6.87;3.80;;;;;;;;;;5095301;28;20458;-71
2024/01/01 04:25:47;;;;;;;6.33;3.20;;;;;;;;;;5093992;28;20514;-70
2024/01/01 04:28:13;;;;;;;7.50;3.37;;;;;;;;;;5103312;28;20463;-71
2024/01/01 04:30:39;;;;;;;7.30;3.10;;;;;;;;;;5092957;28;20526;-71
2024/01/01 04:33:06;;;;;;;6.50;3.23;;;;;;;;;;5096642;28;20534;-71
2024/01/01 04:35:33;;;;;;;4.90;4.30;;;;;;;;;;5096504;28;20613;-72
2024/01/01 04:37:59;;;;;;;3.20;2.63;;;;;;;;;;5101456;28;20453;-71
2024/01/01 04:40:27;;;;;;;4.00;2.50;;;;;;;;;;5106892;28;20519;-71
2024/01/01 04:42:55;;;;;;;7.20;3.57;;;;;;;;;;5099829;28;20478;-71
2024/01/01 04:45:22;;;;;;;4.43;2.40;;;;;;;;;;5095873;28;20451;-71
2024/01/01 04:47:49;;;;;;;4.27;2.57;;;;;;;;;;5099301;28;20987;-71
2024/01/01 04:50:15;;;;;;;3.40;2.13;;;;;;;;;;5098047;28;20465;-71
2024/01/01 04:52:42;;;;;;;5.90;2.73;;;;;;;;;;5096520;28;20453;-71
2024/01/01 04:55:08;;;;;;;4.63;2.37;;;;;;;;;;5096694;28;20454;-71
2024/01/01 04:57:36;;;;;;;5.40;2.20;;;;;;;;;;5095483;28;20517;-71
2024/01/01 05:00:03;;;;;;;4.13;2.37;;;;;;;;;;5095584;28;20479;-72
2024/01/01 05:02:29;;;;;;;3.33;1.90;;;;;;;;;;5107793;28;20450;-71
2024/01/01 05:04:55;;;;;;;3.80;2.00;;;;;;;;;;5106854;28;20526;-72
2024/01/01 05:07:22;;;;;;;5.13;2.20;;;;;;;;;;5096510;28;20470;-71
2024/01/01 05:09:48;;;;;;;3.37;2.27;;;;;;;;;;5090143;28;20493;-71
2024/01/01 05:12:15;;;;;;;4.10;2.23;;;;;;;;;;5099803;28;20462;-71
2024/01/01 05:14:42;;;;;;;3.13;2.07;;;;;;;;;;5099620;28;20616;-71
2024/01/01 05:17:09;;;;;;;8.20;2.53;;;;;;;;;;5101229;28;20510;-70
2024/01/01 05:19:35;;;;;;;2.33;2.07;;;;;;;;;;5095777;28;20474;-70
2024/01/01 05:22:03;;;;;;;4.53;2.13;;;;;;;;;;5095888;28;21049;-70
2024/01/01 05:24:30;;;;;;;6.07;2.00;;;;;;;;;;5096193;28;20609;-70
2024/01/01 05:26:56;;;;;;;4.60;2.00;;;;;;;;;;5092934;28;21106;-70
2024/01/01 05:29:23;;;;;;;2.37;2.10;;;;;;;;;;5109354;28;20510;-70
2024/01/01 05:31:50;;;;;;;2.67;1.90;;;;;;;;;;5104839;28;20595;-70
2024/01/01 05:34:17;;;;;;;6.73;2.90;;;;;;;;;;5105090;28;20445;-71
2024/01/01 05:36:43;;;;;;;4.43;2.30;;;;;;;;;;5098164;28;20590;-76
2024/01/01 05:39:09;;;;;;;7.30;2.67;;;;;;;;;;5106608;28;20549;-75
2024/01/01 05:41:36;;;;;;;9.20;2.27;;;;;;;;;;5103492;28;20470;-75
2024/01/01 05:44:02;;;;;;;5.33;2.43;;;;;;;;;;5107097;28;20473;-76
2024/01/01 05:46:31;;;;;;;7.63;2.20;;;;;;;;;;5095511;28;20439;-71
2024/01/01 05:48:58;;;;;;;4.70;2.80;;;;;;;;;;5095512;28;20980;-70
2024/01/01 05:51:25;;;;;;;6.30;2.47;;;;;;;;;;5099803;28;20561;-71
2024/01/01 05:53:51;;;;;;;8.50;2.77;;;;;;;;;;5097394;28;20485;-71
2024/01/01 05:56:17;;;;;;;4.70;2.43;;;;;;;;;;5096952;28;20547;-71
2024/01/01 05:58:44;;;;;;;7.27;3.17;;;;;;;;;;5100991;28;20454;-71
2024/01/01 06:01:10;;;;;;;4.33;2.13;;;;;;;;;;5096339;28;20447;-71
2024/01/01 06:03:37;;;;;;;3.27;2.47;;;;;;;;;;5106639;28;21010;-71
2024/01/01 06:06:08;;;;;;;2.30;2.10;;;;;;;;;;5093050;28;20451;-71
2024/01/01 06:08:34;;;;;;;6.90;2.47;;;;;;;;;;5091302;28;20986;-71
2024/01/01 06:11:01;;;;;;;9.00;3.00;;;;;;;;;;5098913;28;20477;-71
2024/01/01 06:13:27;;;;;;;8.23;2.87;;;;;;;;;;5103134;28;20459;-71
2024/01/01 06:15:53;;;;;;;7.40;3.20;;;;;;;;;;5097172;28;20455;-71
2024/01/01 06:18:20;;;;;;;4.80;2.10;;;;;;;;;;5095692;28;21090;-71
2024/01/01 06:20:47;;;;;;;7.20;3.40;;;;;;;;;;5097375;28;20495;-71
2024/01/01 06:23:14;;;;;;;6.63;3.00;;;;;;;;;;5100451;28;20472;-72
2024/01/01 06:25:41;;;;;;;2.93;2.37;;;;;;;;;;5099825;28;20459;-71
2024/01/01 06:28:07;;;;;;;5.00;2.43;;;;;;;;;;5102516;28;20915;-72
2024/01/01 06:30:34;;;;;;;6.80;2.30;;;;;;;;;;5099814;28;20534;-71
2024/01/01 06:33:01;;;;;;;5.03;2.60;;;;;;;;;;5103766;28;20449;-71
2024/01/01 06:35:30;;;;;;;2.20;2.00;;;;;;;;;;5099499;28;20490;-72
2024/01/01 06:37:56;;;;;;;3.20;2.20;;;;;;;;;;5107924;28;20506;-71
2024/01/01 06:40:24;;;;;;;5.93;2.40;;;;;;;;;;5099859;28;20453;-71
2024/01/01 06:42:50;;;;;;;7.93;3.50;;;;;;;;;;5108688;28;20730;-71
2024/01/01 06:45:17;;;;;;;4.80;2.87;;;;;;;;;;5098385;28;20972;-71
2024/01/01 06:47:43;;;;;;;4.10;3.20;;;;;;;;;;5097151;28;20881;-71
2024/01/01 06:50:10;;;;;;;7.53;2.67;;;;;;;;;;5108206;28;20486;-71
2024/01/01 06:52:37;;;;;;;4.23;2.50;;;;;;;;;;5098547;28;20554;-71
2024/01/01 06:55:04;;;;;;;5.67;2.40;;;;;;;;;;5097463;28;20439;-71
2024/01/01 06:57:32;;;;;;;9.33;2.93;;;;;;;;;;5098812;28;20549;-71
2024/01/01 06:59:58;;;;;;;10.90;2.80;;;;;;;;;;5100995;28;20465;-71
2024/01/01 07:02:26;;;;;;;6.03;2.30;;;;;;;;;;5095106;28;20447;-71
2024/01/01 07:04:52;;;;;;;6.73;3.17;;;;;;;;;;5098670;28;20435;-70
2024/01/01 07:07:19;;;;;;;3.93;2.23;;;;;;;;;;5097274;28;20447;-71
2024/01/01 07:09:45;;;;;;;15.83;2.87;;;;;;;;;;5099531;28;20478;-70
2024/01/01 07:12:19;;;;;;;6.60;2.60;;;;;;;;;;5102381;28;20473;-71
2024/01/01 07:14:47;;;;;;;8.20;2.63;;;;;;;;;;5102059;28;20473;-71
2024/01/01 07:17:13;;;;;;;13.20;4.40;;;;;;;;;;5097808;28;20541;-71
2024/01/01 07:19:39;;;;;;;11.03;3.07;;;;;;;;;;5098683;28;20534;-71
2024/01/01 07:22:06;;;;;;;7.50;2.60;;;;;;;;;;5100738;28;20482;-71
2024/01/01 07:24:32;;;;;;;8.90;2.67;;;;;;;;;;5098456;28;21044;-70
2024/01/01 07:26:59;;;;;;;8.87;2.77;;;;;;;;;;5098826;28;20435;-71
2024/01/01 07:29:25;;;;;;;6.70;2.57;;;;;;;;;;5112380;28;20604;-71
2024/01/01 07:31:53;;;;;;;6.43;3.60;;;;;;;;;;5100003;28;20528;-71
2024/01/01 07:34:20;;;;;;;5.90;2.37;;;;;;;;;;5094766;28;20443;-70
2024/01/01 07:36:46;;;;;;;5.47;2.50;;;;;;;;;;5103393;28;20494;-71
2024/01/01 07:39:13;;;;;;;9.80;3.00;;;;;;;;;;5100279;28;20467;-71
2024/01/01 07:41:39;;;;;;;10.73;3.13;;;;;;;;;;5097911;28;20446;-71
2024/01/01 07:44:08;;;;;;;6.07;2.80;;;;;;;;;;5097946;28;20474;-71
2024/01/01 07:46:35;;;;;;;7.27;2.50;;;;;;;;;;5096689;28;20473;-70
2024/01/01 07:49:05;;;;;;;7.67;2.37;;;;;;;;;;5100811;28;20507;-71
2024/01/01 07:51:31;;;;;;;4.10;2.30;;;;;;;;;;5096523;28;20508;-71
2024/01/01 07:53:58;;;;;;;12.30;3.43;;;;;;;;;;5098202;28;20542;-71
2024/01/01 07:56:24;;;;;;;7.77;3.30;;;;;;;;;;5098707;28;20534;-71
2024/01/01 07:58:52;;;;;;;6.20;2.70;;;;;;;;;;5098215;28;20514;-71
2024/01/01 08:01:18;;;;;;;5.43;3.10;;;;;;;;;;5092668;28;20451;-72
2024/01/01 08:03:45;;;;;;;9.83;3.20;;;;;;;;;;5099076;28;20503;-71
2024/01/01 08:06:13;;;;;;;7.60;3.10;;;;;;;;;;5097768;28;20471;-71
2024/01/01 08:08:41;;;;;;;12.73;3.07;;;;;;;;;;5099243;28;20882;-70
2024/01/01 08:11:07;;;;;;;6.07;2.90;;;;;;;;;;5103067;28;20504;-71
2024/01/01 08:13:36;;;;;;;9.20;2.93;;;;;;;;;;5106341;28;20523;-71
2024/01/01 08:16:02;;;;;;;8.90;3.60;;;;;;;;;;5095056;28;20455;-71
2024/01/01 08:18:29;;;;;;;6.50;3.67;;;;;;;;;;5102604;28;20524;-71
2024/01/01 08:20:55;;;;;;;11.63;4.03;;;;;;;;;;5102686;28;20495;-71
2024/01/01 08:23:23;;;;;;;3.30;3.00;;;;;;;;;;5095252;28;20514;-71
2024/01/01 08:25:49;;;;;;;8.90;3.03;;;;;;;;;;5103414;28;20478;-71
2024/01/01 08:28:16;;;;;;;7.67;2.93;;;;;;;;;;5097037;28;20851;-71
2024/01/01 08:30:43;;;;;;;5.43;3.10;;;;;;;;;;5096135;28;20459;-71
2024/01/01 08:33:09;;;;;;;8.43;3.17;;;;;;;;;;5100629;28;20439;-71
2024/01/01 08:35:36;;;;;;;8.10;3.40;;;;;;;;;;5080743;28;20578;-71
2024/01/01 08:38:02;;;;;;;6.73;3.37;;;;;;;;;;5102965;28;20566;-71
2024/01/01 08:40:31;;;;;;;8.90;3.90;;;;;;;;;;5096420;28;20455;-71
2024/01/01 08:42:57;;;;;;;6.27;4.10;;;;;;;;;;5096481;28;21022;-71
2024/01/01 08:45:23;;;;;;;10.47;3.90;;;;;;;;;;5103504;28;20510;-72
2024/01/01 08:47:50;;;;;;;7.33;4.17;;;;;;;;;;5102787;28;20478;-71
2024/01/01 08:50:16;;;;;;;4.50;3.30;;;;;;;;;;5098837;28;20467;-71
2024/01/01 08:52:44;;;;;;;4.80;3.20;;;;;;;;;;5096644;28;20526;-71
2024/01/01 08:55:11;;;;;;;5.30;3.13;;;;;;;;;;5096326;28;20504;-72
2024/01/01 08:57:39;;;;;;;6.83;3.47;;;;;;;;;;5106890;28;20593;-71
2024/01/01 09:00:06;;;;;;;7.63;3.50;;;;;;;;;;5109905;28;20453;-71
2024/01/01 09:02:33;;;;;;;4.40;2.97;;;;;;;;;;5105009;28;20482;-71
2024/01/01 09:04:59;;;;;;;9.53;3.60;;;;;;;;;;5102978;28;20443;-71
2024/01/01 09:07:25;;;;;;;4.00;3.50;;;;;;;;;;5100898;28;20545;-71
2024/01/01 09:09:52;;;;;;;6.57;3.33;;;;;;;;;;5108228;28;20474;-72
2024/01/01 09:12:19;;;;;;;3.40;3.20;;;;;;;;;;5097493;28;20498;-71
2024/01/01 09:14:47;;;;;;;8.33;3.40;;;;;;;;;;5091726;28;21006;-71
2024/01/01 09:17:13;;;;;;;4.30;3.00;;;;;;;;;;5096253;28;20575;-71
2024/01/01 09:19:40;;;;;;;7.87;3.30;;;;;;;;;;5100378;28;20450;-71
2024/01/01 09:22:08;;;;;;;7.10;3.37;;;;;;;;;;5098170;28;20477;-71
2024/01/01 09:24:35;;;;;;;5.40;2.97;;;;;;;;;;5099339;28;20503;-71
2024/01/01 09:27:01;;;;;;;4.97;3.80;;;;;;;;;;5097003;28;20495;-71
2024/01/01 09:29:28;;;;;;;4.70;3.33;;;;;;;;;;5093518;28;20463;-71
2024/01/01 09:31:55;;;;;;;3.50;3.20;;;;;;;;;;5089018;28;20475;-71
2024/01/01 09:34:22;;;;;;;7.03;3.80;;;;;;;;;;5094302;28;20482;-73
2024/01/01 09:36:48;;;;;;;3.53;3.20;;;;;;;;;;5102163;28;20545;-73
2024/01/01 09:39:17;;;;;;;8.27;4.73;;;;;;;;;;5096015;28;20486;-71
2024/01/01 09:41:44;;;;;;;8.93;4.20;;;;;;;;;;5095808;28;20535;-72
2024/01/01 09:44:10;;;;;;;5.07;3.13;;;;;;;;;;5097709;28;21108;-71
2024/01/01 09:46:37;;;;;;;11.23;4.33;;;;;;;;;;5101702;28;20493;-71
2024/01/01 09:49:04;;;;;;;9.80;3.80;;;;;;;;;;5101502;28;20473;-71
2024/01/01 09:51:32;;;;;;;4.90;3.30;;;;;;;;;;5091626;28;20463;-71
2024/01/01 09:54:01;;;;;;;3.00;2.80;;;;;;;;;;5099343;28;20451;-71
2024/01/01 09:56:27;;;;;;;5.53;3.33;;;;;;;;;;5098194;28;20474;-71
2024/01/01 09:58:57;;;;;;;6.20;3.57;;;;;;;;;;5099739;28;20505;-71
2024/01/01 10:01:23;;;;;;;9.60;4.03;;;;;;;;;;5099349;28;20493;-72
2024/01/01 10:04:00;;;;;;;3.43;3.00;;;;;;;;;;5102218;28;20892;-72
2024/01/01 10:06:28;;;;;;;7.80;7.03;;;;;;;;;;5090479;28;20442;-71
2024/01/01 10:09:05;;;;;;;5.17;4.70;;;;;;;;;;5099048;28;20934;-71
2024/01/01 10:11:31;;;;;;;6.90;3.07;;;;;;;;;;5088240;28;20457;-70
2024/01/01 10:14:02;;;;;;;5.80;5.17;;;;;;;;;;5099120;28;20534;-71
2024/01/01 10:16:28;;;;;;;11.67;5.80;;;;;;;;;;5101530;28;20454;-71
2024/01/01 10:18:56;;;;;;;9.27;5.77;;;;;;;;;;5110923;28;20554;-71
2024/01/01 10:21:26;;;;;;;5.73;5.40;;;;;;;;;;5108010;28;20461;-71
2024/01/01 10:23:54;;;;;;;7.33;5.07;;;;;;;;;;5104263;28;20541;-71
2024/01/01 10:26:20;;;;;;;9.43;5.60;;;;;;;;;;5106078;28;20587;-71
2024/01/01 10:28:47;;;;;;;4.63;2.30;;;;;;;;;;5104893;28;20478;-71
2024/01/01 10:31:15;;;;;;;3.30;2.40;;;;;;;;;;5100547;28;20515;-71
2024/01/01 10:33:41;;;;;;;6.17;5.43;;;;;;;;;;5100807;28;20456;-71
2024/01/01 10:36:08;;;;;;;5.00;3.10;;;;;;;;;;5101653;28;20556;-72
2024/01/01 10:38:35;;;;;;;6.80;5.40;;;;;;;;;;5107115;28;21113;-71
2024/01/01 10:41:04;;;;;;;8.80;2.90;;;;;;;;;;5103933;28;20586;-71
2024/01/01 10:43:31;;;;;;;4.37;3.10;;;;;;;;;;5105023;28;20569;-71
2024/01/01 10:46:01;;;;;;;4.67;2.60;;;;;;;;;;5101337;28;21051;-72
2024/01/01 10:48:27;;;;;;;5.73;3.50;;;;;;;;;;5098722;28;20509;-71
2024/01/01 10:51:00;;;;;;;6.80;4.70;;;;;;;;;;5099202;28;20462;-71
2024/01/01 10:53:30;;;;;;;6.17;5.67;;;;;;;;;;5098714;28;20948;-71
2024/01/01 10:56:03;;;;;;;6.63;5.80;;;;;;;;;;5101271;28;20439;-71
2024/01/01 10:58:38;;;;;;;7.03;6.33;;;;;;;;;;5105506;28;20577;-71
2024/01/01 11:01:06;;;;;;;12.90;7.40;;;;;;;;;;5106651;28;20961;-71
2024/01/01 11:03:34;;;;;;;7.00;6.40;;;;;;;;;;5098638;28;20974;-71
2024/01/01 11:06:21;;;;;;;6.10;3.30;;;;;;;;;;5100107;28;20477;-71
2024/01/01 11:08:47;;;;;;;5.33;3.33;;;;;;;;;;5104262;28;20518;-71
2024/01/01 11:11:21;;;;;;;5.00;3.20;;;;;;;;;;5106854;28;20482;-71
2024/01/01 11:13:58;;;;;;;7.23;3.23;;;;;;;;;;5099381;28;20920;-72
2024/01/01 11:16:26;;;;;;;4.93;3.77;;;;;;;;;;5098016;28;20455;-71
2024/01/01 11:18:52;;;;;;;3.53;3.23;;;;;;;;;;5095605;28;21050;-71
2024/01/01 11:21:32;;;;;;;4.33;3.90;;;;;;;;;;5098556;28;20511;-72
2024/01/01 11:24:01;;;;;;;4.77;3.40;;;;;;;;;;5100037;28;20465;-72
2024/01/01 11:26:27;;;;;;;11.43;3.57;;;;;;;;;;5105256;28;20443;-71
2024/01/01 11:28:55;;;;;;;5.60;3.80;;;;;;;;;;5102040;28;20521;-72
2024/01/01 11:31:22;;;;;;;4.10;3.27;;;;;;;;;;5098890;28;20454;-72
2024/01/01 11:33:58;;;;;;;4.47;4.03;;;;;;;;;;5103951;28;20584;-72
2024/01/01 11:36:25;;;;;;;4.33;3.30;;;;;;;;;;5100389;28;20513;-71
2024/01/01 11:38:52;;;;;;;5.10;4.00;;;;;;;;;;5101552;28;20549;-71
2024/01/01 11:41:21;;;;;;;6.43;3.53;;;;;;;;;;5097602;28;20549;-72
2024/01/01 11:43:48;;;;;;;5.47;3.57;;;;;;;;;;5088610;28;20922;-72
2024/01/01 11:46:23;;;;;;;4.17;3.30;;;;;;;;;;5102293;28;20486;-71
2024/01/01 11:48:55;;;;;;;8.17;3.83;;;;;;;;;;5101295;28;20473;-72
2024/01/01 11:51:21;;;;;;;7.20;3.43;;;;;;;;;;5099888;28;20479;-71
2024/01/01 11:53:48;;;;;;;3.83;3.43;;;;;;;;;;5101750;28;20530;-71
2024/01/01 11:56:14;;;;;;;4.77;4.03;;;;;;;;;;5103625;28;20523;-70
2024/01/01 11:58:40;;;;;;;5.93;4.03;;;;;;;;;;5085431;28;21028;-71
2024/01/01 12:01:07;;;;;;;8.40;4.57;;;;;;;;;;5104160;28;20518;-71
2024/01/01 12:03:35;;;;;;;9.20;4.00;;;;;;;;;;5094472;28;20504;-71
2024/01/01 12:06:04;;;;;;;5.37;3.53;;;;;;;;;;5094263;28;20482;-71
2024/01/01 12:08:30;;;;;;;4.50;3.87;;;;;;;;;;5096890;28;20926;-71
2024/01/01 12:10:58;;;;;;;4.73;3.37;;;;;;;;;;5101034;28;20482;-71
2024/01/01 12:13:25;;;;;;;3.87;3.30;;;;;;;;;;5103815;28;20986;-71
2024/01/01 12:15:53;;;;;;;3.20;2.90;;;;;;;;;;5101819;28;20717;-71
2024/01/01 12:18:19;;;;;;;4.80;3.40;;;;;;;;;;5102524;28;20714;-71
2024/01/01 12:20:47;;;;;;;5.67;3.70;;;;;;;;;;5098212;28;20502;-71
2024/01/01 12:23:15;;;;;;;5.20;3.23;;;;;;;;;;5097503;28;20462;-71
2024/01/01 12:25:42;;;;;;;6.03;3.60;;;;;;;;;;5098460;28;20451;-71
2024/01/01 12:28:08;;;;;;;5.07;3.10;;;;;;;;;;5096727;28;20873;-71
2024/01/01 12:30:35;;;;;;;5.10;3.60;;;;;;;;;;5096041;28;20479;-71
2024/01/01 12:33:02;;;;;;;5.30;3.77;;;;;;;;;;5105057;28;20498;-71
2024/01/01 12:35:28;;;;;;;7.10;3.10;;;;;;;;;;5099142;28;20502;-71
2024/01/01 12:37:56;;;;;;;8.13;3.43;;;;;;;;;;5098990;28;20511;-71
2024/01/01 12:40:25;;;;;;;6.43;3.60;;;;;;;;;;5094913;28;20485;-72
2024/01/01 12:42:51;;;;;;;5.63;3.73;;;;;;;;;;5102092;28;20950;-72
2024/01/01 12:45:18;;;;;;;7.00;3.73;;;;;;;;;;5104042;28;20477;-73
2024/01/01 12:47:44;;;;;;;8.50;4.07;;;;;;;;;;5100290;28;20458;-71
2024/01/01 12:50:11;;;;;;;8.33;4.07;;;;;;;;;;5091785;28;20444;-71
2024/01/01 12:52:38;;;;;;;7.27;3.10;;;;;;;;;;5095449;28;20482;-72
2024/01/01 12:55:06;;;;;;;6.73;3.87;;;;;;;;;;5099412;28;20469;-71
2024/01/01 12:57:32;;;;;;;6.10;4.10;;;;;;;;;;5100080;28;21002;-71
2024/01/01 12:59:59;;;;;;;11.00;5.10;;;;;;;;;;5098848;28;20518;-71
2024/01/01 13:02:25;;;;;;;7.43;3.40;;;;;;;;;;5096834;28;20982;-71
2024/01/01 13:04:52;;;;;;;12.67;4.33;;;;;;;;;;5091693;28;20444;-71
2024/01/01 13:07:18;;;;;;;8.63;4.27;;;;;;;;;;5085750;28;20757;-71
2024/01/01 13:09:45;;;;;;;6.00;3.43;;;;;;;;;;5093864;28;20460;-71
2024/01/01 13:12:12;;;;;;;6.87;5.00;;;;;;;;;;5097973;28;20470;-71
2024/01/01 13:14:39;;;;;;;8.77;5.10;;;;;;;;;;5098366;28;20515;-73
2024/01/01 13:17:05;;;;;;;6.30;4.60;;;;;;;;;;5092862;28;20486;-71
2024/01/01 13:19:32;;;;;;;10.30;4.87;;;;;;;;;;5096143;28;20524;-71
2024/01/01 13:21:59;;;;;;;9.10;5.60;;;;;;;;;;5103970;28;20451;-71
2024/01/01 13:24:25;;;;;;;8.63;4.77;;;;;;;;;;5101135;28;20524;-70
2024/01/01 13:26:51;;;;;;;8.47;5.53;;;;;;;;;;5103016;28;20455;-72
2024/01/01 13:29:19;;;;;;;7.93;5.03;;;;;;;;;;5106610;28;20450;-71
2024/01/01 13:31:46;;;;;;;6.80;5.63;;;;;;;;;;5096608;28;20478;-71
2024/01/01 13:34:13;;;;;;;6.73;5.50;;;;;;;;;;5102687;28;20461;-71
2024/01/01 13:36:39;;;;;;;4.73;4.30;;;;;;;;;;5095685;28;20577;-71
2024/01/01 13:39:06;;;;;;;4.97;4.17;;;;;;;;;;5105094;28;20604;-71
2024/01/01 13:41:33;;;;;;;9.80;4.70;;;;;;;;;;5100540;28;20521;-71
2024/01/01 13:44:00;;;;;;;5.43;4.40;;;;;;;;;;5101068;28;20478;-71
2024/01/01 13:46:28;;;;;;;4.03;3.47;;;;;;;;;;5088942;28;20689;-71
2024/01/01 13:48:55;;;;;;;3.63;3.13;;;;;;;;;;5097922;28;20455;-71
2024/01/01 13:51:21;;;;;;;5.27;3.37;;;;;;;;;;5115348;28;20474;-71
2024/01/01 13:53:47;;;;;;;5.03;3.70;;;;;;;;;;5096161;28;20550;-71
2024/01/01 13:56:18;;;;;;;8.30;4.30;;;;;;;;;;5098166;28;20534;-71
2024/01/01 13:58:44;;;;;;;4.93;3.50;;;;;;;;;;5098112;28;21053;-71
2024/01/01 14:01:11;;;;;;;8.47;4.30;;;;;;;;;;5095733;28;20457;-72
2024/01/01 14:03:40;;;;;;;7.50;5.00;;;;;;;;;;5096223;28;20444;-71
2024/01/01 14:06:06;;;;;;;9.27;4.53;;;;;;;;;;5084636;28;20478;-72
2024/01/01 14:08:33;;;;;;;7.10;5.00;;;;;;;;;;5088550;28;20463;-71
2024/01/01 14:10:59;;;;;;;6.27;4.90;;;;;;;;;;5083437;28;20491;-72
2024/01/01 14:13:28;;;;;;;8.53;5.20;;;;;;;;;;5094255;28;20970;-72
2024/01/01 14:15:54;;;;;;;6.33;4.43;;;;;;;;;;5081693;28;20494;-71
2024/01/01 14:18:20;;;;;;;7.70;5.50;;;;;;;;;;5101791;28;20470;-71
2024/01/01 14:20:48;;;;;;;7.67;4.60;;;;;;;;;;5087040;28;20517;-72
2024/01/01 14:23:15;;;;;;;9.37;4.77;;;;;;;;;;5093871;28;20486;-71
2024/01/01 14:25:42;;;;;;;5.53;4.03;;;;;;;;;;5093595;28;20465;-71
2024/01/01 14:28:08;;;;;;;6.27;3.87;;;;;;;;;;5090921;28;20504;-71
2024/01/01 14:30:35;;;;;;;9.10;4.40;;;;;;;;;;5091021;28;20467;-71
2024/01/01 14:33:02;;;;;;;7.70;4.30;;;;;;;;;;5090814;28;20490;-70
2024/01/01 14:35:28;;;;;;;7.73;4.23;;;;;;;;;;5090263;28;20487;-71
2024/01/01 14:37:56;;;;;;;9.93;4.40;;;;;;;;;;5089725;28;20555;-72
2024/01/01 14:40:22;;;;;;;7.43;3.80;;;;;;;;;;5080392;28;20538;-73